Celtic Sea — D5HH9 — position and weather

sailwx.info

Track history (hours):
 
Tides and Currents Weather Stations Pressure Air Temp Water Temp Dewpoint Dewpoint Depression Visibility Wind Speed Wind Dir Waves Ship Positions

Celtic Sea

Last reported at 2018-Feb-02 23:27 UTC. Time now 2018-Feb-18 21:30 UTC.
Position N 06°22' W 013°26'.
Warning: this ship's position is 15 days out of date.

Length 239 m; draft 9 m.

Type: Tanker. MMSI: 636016693.

Date/timePositionNaut miles runAvg speedWind from/ knotsBaromVisibWave heightAir tempDewpointWater temp
2018-Feb-02 23:27N 06°22' W 013°26'4813.0
2018-Feb-02 19:45N 06°47' W 014°08'1013.1
2018-Feb-02 18:58N 06°52' W 014°16'713.0
2018-Feb-02 18:26N 06°56' W 014°22'2613.0
2018-Feb-02 16:25N 07°10' W 014°44'1313.3
2018-Feb-02 15:27N 07°17' W 014°55'1213.2
2018-Feb-02 14:30N 07°24' W 015°06'813.4
2018-Feb-02 13:54N 07°28' W 015°13'1413.5
2018-Feb-02 12:51N 07°36' W 015°25'513.6
2018-Feb-02 12:31N 07°38' W 015°29'713.2
2018-Feb-02 12:00N 07°42' W 015°34'712.9
2018-Feb-02 11:30N 07°46' W 015°40'3513.1
2018-Feb-02 08:47N 08°05' W 016°10'413.0
2018-Feb-02 08:31N 08°07' W 016°13'612.9
2018-Feb-02 08:00N 08°10' W 016°19'613.0
2018-Feb-02 07:30N 08°14' W 016°24'613.1
2018-Feb-02 07:01N 08°17' W 016°29'713.4
2018-Feb-02 06:30N 08°21' W 016°35'713.1
2018-Feb-02 06:00N 08°24' W 016°41'612.8
2018-Feb-02 05:30N 08°28' W 016°46'713.0
2018-Feb-02 05:00N 08°31' W 016°52'713.3
2018-Feb-02 04:30N 08°35' W 016°57'713.2
2018-Feb-02 04:00N 08°39' W 017°03'713.2
2018-Feb-02 03:30N 08°42' W 017°09'913.2
2018-Feb-02 02:49N 08°47' W 017°16'713.4
2018-Feb-02 02:19N 08°50' W 017°22'1713.5
2018-Feb-02 01:01N 08°60' W 017°37'012.9
2018-Feb-02 01:00N 08°60' W 017°37'813.0
2018-Feb-02 00:21N 09°04' W 017°45'412.8
2018-Feb-02 00:00N 09°06' W 017°49'1013.1
2018-Feb-01 23:15N 09°11' W 017°58'  
Track history (hours):
 
Tides and Currents Weather Stations Pressure Air Temp Water Temp Dewpoint Dewpoint Depression Visibility Wind Speed Wind Dir Waves Ship Positions

Celtic Sea

Last reported at 2018-Feb-02 23:27 UTC. Time now 2018-Feb-18 21:30 UTC.
Position N 06°22' W 013°26'.
Warning: this ship's position is 15 days out of date.

Length 239 m; draft 9 m.

Type: Tanker. MMSI: 636016693.

Date/timePositionNaut miles runAvg speedWind from/ knotsBaromVisibWave heightAir tempDewpointWater temp
2018-Feb-02 23:27N 06°22' W 013°26'4813.0
2018-Feb-02 19:45N 06°47' W 014°08'1013.1
2018-Feb-02 18:58N 06°52' W 014°16'713.0
2018-Feb-02 18:26N 06°56' W 014°22'2613.0
2018-Feb-02 16:25N 07°10' W 014°44'1313.3
2018-Feb-02 15:27N 07°17' W 014°55'1213.2
2018-Feb-02 14:30N 07°24' W 015°06'813.4
2018-Feb-02 13:54N 07°28' W 015°13'1413.5
2018-Feb-02 12:51N 07°36' W 015°25'513.6
2018-Feb-02 12:31N 07°38' W 015°29'713.2
2018-Feb-02 12:00N 07°42' W 015°34'712.9
2018-Feb-02 11:30N 07°46' W 015°40'3513.1
2018-Feb-02 08:47N 08°05' W 016°10'413.0
2018-Feb-02 08:31N 08°07' W 016°13'612.9
2018-Feb-02 08:00N 08°10' W 016°19'613.0
2018-Feb-02 07:30N 08°14' W 016°24'613.1
2018-Feb-02 07:01N 08°17' W 016°29'713.4
2018-Feb-02 06:30N 08°21' W 016°35'713.1
2018-Feb-02 06:00N 08°24' W 016°41'612.8
2018-Feb-02 05:30N 08°28' W 016°46'713.0
2018-Feb-02 05:00N 08°31' W 016°52'713.3
2018-Feb-02 04:30N 08°35' W 016°57'713.2
2018-Feb-02 04:00N 08°39' W 017°03'713.2
2018-Feb-02 03:30N 08°42' W 017°09'913.2
2018-Feb-02 02:49N 08°47' W 017°16'713.4
2018-Feb-02 02:19N 08°50' W 017°22'1713.5
2018-Feb-02 01:01N 08°60' W 017°37'012.9
2018-Feb-02 01:00N 08°60' W 017°37'813.0
2018-Feb-02 00:21N 09°04' W 017°45'412.8
2018-Feb-02 00:00N 09°06' W 017°49'1013.1
2018-Feb-01 23:15N 09°11' W 017°58'  

Dump ship's entire track history